Guymon, OK (73942)

8:08 PM CDT on April 30, 2017 (GMT -0500)
Adams | | Change Station
Active Advisory: Freeze Warning

Elev 2844 ft 36.75 °N, 101.08 °W | Updated 28 minutes ago

Partly Cloudy
Partly Cloudy
37.8 °F
Feels Like 35 °F
N
4.0
Wind Variable Wind from WNW
Gusts 13.0 mph

Today
High -- | Low -- °F
--% Chance of Precip.
Yesterday
High -- | Low -- °F
Precip. -- in
Pressure 29.86 in
Visibility 10.0 miles
Clouds Few 1700 ft
Overcast 11000 ft
Windchill 35 °F
Dew Point 35 °F
Humidity 90%
Rainfall 0.66 in
Snow Depth Not available.
6:52 AM 8:33 PM
Waxing Crescent, 27% visible
METAR KLBL 010056Z AUTO 29011KT 10SM FEW017 OVC110 02/00 A2982 RMK AO2 PK WND 36026/2358 WSHFT 2357 RAE07 SLP110 T00170000 FZRANO PNO $
Pressure 29.86 in
Visibility 10.0 miles
Clouds Few 1700 ft
Overcast 11000 ft
Windchill 35 °F
Dew Point 35 °F
Humidity 90%
Rainfall 0.66 in
Snow Depth Not available.
6:52 AM 8:33 PM
Waxing Crescent, 27% visible
METAR KLBL 010056Z AUTO 29011KT 10SM FEW017 OVC110 02/00 A2982 RMK AO2 PK WND 36026/2358 WSHFT 2357 RAE07 SLP110 T00170000 FZRANO PNO $

Get Your Daily Forecast Email!

Thanks for signing up!

Be on the lookout for a verification email in your inbox.

You'll start receiving severe weather alerts in your inbox..

×

10-Day Weather Forecast

Almanac

Astronomy

Apr. 30, 2017 Rise Set
Actual Time
Civil Twilight
Nautical Twilight
Astronomical Twilight
Moon
Length of Visible Light
Length of Day
Tomorrow will be .
, % of the Moon is Illuminated

Today's Extremes

State Highs State Lows

Community

WunderPhotos

WunderBlog® & News

Nearby

Air Quality

  Air Quality AQ Index Pollutant
Not available.

Snow Depth

Station Depth Elevation

Earthquake Activity

City Distance Mag. Time & Date
Minimum magnitude displayed is 2.5.

Coastal Water Temperatures

Place Temperature

Stations

Nearby Weather Stations

Station Location Temp. Windchill Dew Point Humidity Wind Precip. Elev Updated Type
                   

Watches & Warnings

Freeze Warning
Issued: 7:56 PM CDT Apr. 30, 2017 – National Weather Service

... Freeze warning remains in effect until 10 am CDT Monday...

* temperatures... lows in the lower 30s.

* Impacts... the cold temperatures will kill garden crops and
outdoor plants. Unprotected outdoor pipes could freeze.

Precautionary/preparedness actions...

A freeze warning means sub freezing temperatures are imminent or
highly likely. These conditions will kill crops and other
sensitive vegetation.



Guerrero